Time;durP1;ratioP1;P1;durP2;ratioP2;P2;SDS_P1;SDS_P2;PMS_P1;PMS_P2;Temp;Humidity;BMP_temperature;BMP_pressure;BME280_temperature;BME280_humidity;BME280_pressure;Samples;Min_cycle;Max_cycle;Signal;HPM_P1;HPM_P2
2021/06/12 00:00:15;;;;;;;17.38;12.70;;;;;;;16.27;100.00;97892.25;5032897;28;20113;-78
2021/06/12 00:02:42;;;;;;;21.35;13.57;;;;;;;16.26;100.00;97898.88;5015223;28;20049;-78
2021/06/12 00:05:12;;;;;;;19.70;12.93;;;;;;;16.31;100.00;97909.56;5033005;28;20057;-78
2021/06/12 00:07:39;;;;;;;18.23;13.38;;;;;;;16.28;100.00;97904.81;5030045;28;20053;-77
2021/06/12 00:10:15;;;;;;;21.40;13.80;;;;;;;16.27;100.00;97898.53;5028114;28;20374;-77
2021/06/12 00:12:42;;;;;;;17.77;13.45;;;;;;;16.31;100.00;97901.38;5027232;28;20053;-76
2021/06/12 00:15:11;;;;;;;16.98;12.65;;;;;;;16.30;100.00;97902.50;5012282;28;20076;-77
2021/06/12 00:17:41;;;;;;;17.00;13.45;;;;;;;16.26;100.00;97902.41;5030033;28;20116;-77
2021/06/12 00:20:14;;;;;;;18.38;13.55;;;;;;;16.23;100.00;97914.81;5031262;28;20041;-78
2021/06/12 00:22:42;;;;;;;23.10;14.07;;;;;;;16.12;100.00;97904.72;5031156;28;20191;-77
2021/06/12 00:25:15;;;;;;;23.85;14.35;;;;;;;16.09;100.00;97911.66;5030292;28;20133;-77
2021/06/12 00:27:41;;;;;;;21.05;14.93;;;;;;;16.03;100.00;97904.84;5030071;28;20053;-77
2021/06/12 00:30:10;;;;;;;20.35;13.85;;;;;;;16.00;100.00;97902.00;4996547;28;20045;-77
2021/06/12 00:32:38;;;;;;;16.42;13.07;;;;;;;16.00;100.00;97905.50;5030359;28;20416;-78
2021/06/12 00:35:07;;;;;;;19.15;13.73;;;;;;;15.98;100.00;97904.25;5031818;28;20097;-78
2021/06/12 00:37:37;;;;;;;16.88;13.95;;;;;;;15.98;100.00;97907.00;5013032;28;20373;-77
2021/06/12 00:40:06;;;;;;;19.85;14.27;;;;;;;15.96;100.00;97899.16;5030328;28;20107;-77
2021/06/12 00:42:35;;;;;;;19.17;13.35;;;;;;;16.00;100.00;97899.28;5029950;28;20053;-77
2021/06/12 00:45:02;;;;;;;20.98;13.40;;;;;;;16.00;100.00;97905.50;5012491;28;20056;-78
2021/06/12 00:47:28;;;;;;;18.45;12.65;;;;;;;16.00;100.00;97897.31;5012716;28;20248;-78
2021/06/12 00:49:55;;;;;;;14.63;12.57;;;;;;;15.94;100.00;97900.63;5030486;28;20068;-77
2021/06/12 00:52:22;;;;;;;20.08;13.02;;;;;;;15.95;100.00;97903.00;5031549;28;20046;-78
2021/06/12 00:54:51;;;;;;;19.42;13.48;;;;;;;16.01;100.00;97895.38;5037934;28;20057;-77
2021/06/12 00:57:18;;;;;;;20.13;12.77;;;;;;;16.05;100.00;97897.09;5014173;28;20135;-78
2021/06/12 00:59:45;;;;;;;15.68;12.35;;;;;;;16.10;100.00;97894.13;5032005;28;20060;-77
2021/06/12 01:02:12;;;;;;;16.60;12.63;;;;;;;16.14;100.00;97900.50;5032785;28;20063;-78
2021/06/12 01:04:38;;;;;;;16.35;11.77;;;;;;;16.16;100.00;97890.00;5022377;28;20053;-78
2021/06/12 01:07:05;;;;;;;14.80;11.98;;;;;;;16.16;100.00;97890.00;4997296;28;20464;-78
2021/06/12 01:09:31;;;;;;;18.33;12.60;;;;;;;16.09;100.00;97881.63;5031949;28;20053;-78
2021/06/12 01:12:18;;;;;;;15.77;12.15;;;;;;;16.11;100.00;97884.00;5035035;28;20049;-79
2021/06/12 01:14:56;;;;;;;15.35;11.90;;;;;;;16.10;100.00;97883.19;5032733;28;20067;-78
2021/06/12 01:18:00;;;;;;;15.05;12.27;;;;;;;16.03;100.00;97891.19;5015964;28;20115;-78
2021/06/12 01:20:45;;;;;;;17.77;12.20;;;;;;;16.00;100.00;97891.84;5026082;28;20053;-78
2021/06/12 01:23:11;;;;;;;14.88;12.50;;;;;;;16.08;100.00;97890.13;5033351;28;20493;-78
2021/06/12 01:25:54;;;;;;;15.40;12.00;;;;;;;16.14;100.00;97891.50;5014061;28;20053;-78
2021/06/12 01:28:42;;;;;;;18.10;12.63;;;;;;;16.24;100.00;97882.81;5014297;28;20133;-78
2021/06/12 01:31:13;;;;;;;18.88;12.00;;;;;;;16.31;100.00;97876.78;5014313;28;20046;-79
2021/06/12 01:33:45;;;;;;;16.08;11.55;;;;;;;16.37;100.00;97883.59;5032533;28;20115;-78
2021/06/12 01:36:16;;;;;;;14.40;10.98;;;;;;;16.37;100.00;97870.72;5034000;28;20259;-78
2021/06/12 01:38:46;;;;;;;17.33;11.00;;;;;;;16.37;100.00;97870.72;5035965;28;20064;-78
2021/06/12 01:41:16;;;;;;;13.82;10.90;;;;;;;16.36;100.00;97855.50;5035571;28;20112;-78
2021/06/12 01:43:44;;;;;;;14.90;11.55;;;;;;;16.38;100.00;97863.31;5017410;28;20057;-78
2021/06/12 01:46:12;;;;;;;16.30;12.57;;;;;;;16.31;100.00;97857.66;5039021;28;20065;-79
2021/06/12 01:48:44;;;;;;;15.88;11.82;;;;;;;16.35;100.00;97867.53;5038055;28;20131;-79
2021/06/12 01:51:12;;;;;;;17.75;12.38;;;;;;;16.35;100.00;97853.88;5035811;28;20045;-78
2021/06/12 01:53:43;;;;;;;16.70;12.45;;;;;;;16.28;100.00;97855.63;5036176;28;20068;-78
2021/06/12 01:56:12;;;;;;;16.05;12.68;;;;;;;16.21;100.00;97869.84;5018926;28;20061;-78
2021/06/12 01:58:45;;;;;;;18.08;12.77;;;;;;;16.27;100.00;97865.75;5017872;28;20050;-78
2021/06/12 02:01:14;;;;;;;18.55;12.32;;;;;;;16.28;100.00;97863.81;5017942;28;20041;-78
2021/06/12 02:03:44;;;;;;;16.10;12.63;;;;;;;16.20;100.00;97860.88;5035414;28;20057;-79
2021/06/12 02:06:15;;;;;;;17.90;12.55;;;;;;;16.26;100.00;97863.38;5017927;28;20061;-78
2021/06/12 02:08:44;;;;;;;20.25;12.32;;;;;;;16.29;100.00;97858.00;5014584;28;20144;-78
2021/06/12 02:11:14;;;;;;;15.85;12.02;;;;;;;16.34;100.00;97855.03;5016494;28;20492;-78
2021/06/12 02:13:42;;;;;;;16.92;12.00;;;;;;;16.34;100.00;97852.28;5033912;28;20509;-78
2021/06/12 02:16:10;;;;;;;19.55;13.55;;;;;;;16.33;100.00;97842.50;5034130;28;20053;-78
2021/06/12 02:18:40;;;;;;;17.20;11.43;;;;;;;16.32;100.00;97846.38;5033865;28;20062;-78
2021/06/12 02:21:08;;;;;;;15.88;11.93;;;;;;;16.28;100.00;97844.69;5016627;28;20053;-78
2021/06/12 02:23:35;;;;;;;19.80;13.82;;;;;;;16.26;100.00;97844.25;5034646;28;20295;-78
2021/06/12 02:26:02;;;;;;;17.63;12.98;;;;;;;16.21;100.00;97839.81;5017335;28;20087;-78
2021/06/12 02:28:34;;;;;;;16.45;13.40;;;;;;;16.21;100.00;97845.25;4999070;28;20069;-78
2021/06/12 02:31:08;;;;;;;21.23;12.68;;;;;;;16.16;100.00;97854.50;4996471;28;20127;-77
2021/06/12 02:33:37;;;;;;;15.43;12.52;;;;;;;16.16;100.00;97859.97;5012392;28;20121;-78
2021/06/12 02:36:04;;;;;;;18.52;12.55;;;;;;;16.18;100.00;97859.63;5012076;28;20167;-77
2021/06/12 02:38:31;;;;;;;18.50;13.05;;;;;;;16.18;100.00;97857.69;5011636;28;20433;-77
2021/06/12 02:40:59;;;;;;;21.50;13.50;;;;;;;16.23;100.00;97855.88;5012526;28;20301;-77
2021/06/12 02:43:27;;;;;;;18.48;13.20;;;;;;;16.25;100.00;97854.38;5011108;28;20562;-77
2021/06/12 02:45:56;;;;;;;17.95;12.48;;;;;;;16.26;100.00;97842.28;5011224;28;20100;-77
2021/06/12 02:48:27;;;;;;;16.50;12.75;;;;;;;16.26;100.00;97836.06;4992806;28;20143;-77
2021/06/12 02:51:00;;;;;;;18.17;12.90;;;;;;;16.24;100.00;97839.13;5009111;28;20127;-77
2021/06/12 02:53:33;;;;;;;16.42;12.50;;;;;;;16.21;100.00;97837.88;5010855;28;20108;-77
2021/06/12 02:56:02;;;;;;;15.88;12.10;;;;;;;16.20;100.00;97839.03;5012314;28;20061;-78
2021/06/12 02:58:30;;;;;;;20.75;12.95;;;;;;;16.13;100.00;97836.06;5011334;28;20057;-77
2021/06/12 03:00:57;;;;;;;18.83;13.15;;;;;;;16.06;100.00;97841.34;4994598;28;20054;-77
2021/06/12 03:03:26;;;;;;;19.38;12.65;;;;;;;16.05;100.00;97830.75;5013567;28;20053;-78
2021/06/12 03:05:58;;;;;;;16.52;13.25;;;;;;;16.06;100.00;97843.25;5014996;28;20060;-78
2021/06/12 03:08:29;;;;;;;17.25;13.43;;;;;;;16.04;100.00;97846.34;5003117;28;20045;-78
2021/06/12 03:10:56;;;;;;;21.65;13.45;;;;;;;16.02;100.00;97854.09;4996319;28;20054;-78
2021/06/12 03:13:27;;;;;;;18.65;13.27;;;;;;;16.05;100.00;97844.41;5012628;28;20429;-78
2021/06/12 03:15:57;;;;;;;17.45;13.63;;;;;;;16.01;100.00;97840.78;4995370;28;20062;-78
2021/06/12 03:18:25;;;;;;;20.55;14.13;;;;;;;16.07;100.00;97842.13;5012021;28;20100;-78
2021/06/12 03:20:56;;;;;;;25.73;13.90;;;;;;;16.11;100.00;97849.28;5021850;28;20050;-78
2021/06/12 03:23:25;;;;;;;19.80;13.30;;;;;;;16.06;100.00;97844.06;5017132;28;20088;-78
2021/06/12 03:25:52;;;;;;;18.15;12.70;;;;;;;16.14;100.00;97848.59;5010153;28;20064;-78
2021/06/12 03:28:19;;;;;;;15.32;12.75;;;;;;;16.21;100.00;97845.25;5010122;28;20061;-78
2021/06/12 03:30:47;;;;;;;14.57;12.70;;;;;;;16.31;100.00;97836.56;5012858;28;20046;-78
2021/06/12 03:33:15;;;;;;;16.08;12.80;;;;;;;16.46;100.00;97852.25;4994751;28;20108;-78
2021/06/12 03:35:42;;;;;;;17.42;12.63;;;;;;;16.57;100.00;97855.31;4994128;28;20053;-78
2021/06/12 03:38:10;;;;;;;19.40;13.13;;;;;;;16.66;100.00;97847.75;4994494;28;20065;-78
2021/06/12 03:40:37;;;;;;;16.38;12.60;;;;;;;16.78;100.00;97847.69;4995203;28;20456;-78
2021/06/12 03:43:06;;;;;;;18.02;13.52;;;;;;;16.91;100.00;97842.94;5012560;28;20058;-78
2021/06/12 03:45:35;;;;;;;16.10;12.88;;;;;;;16.97;100.00;97847.81;5012839;28;20057;-79
2021/06/12 03:48:03;;;;;;;17.77;13.88;;;;;;;17.05;100.00;97846.06;4995187;28;20065;-78
2021/06/12 03:50:32;;;;;;;21.08;14.57;;;;;;;17.17;100.00;97852.25;5012900;28;20521;-79
2021/06/12 03:53:00;;;;;;;20.33;16.25;;;;;;;17.28;100.00;97856.06;5011887;28;20056;-78
2021/06/12 03:55:27;;;;;;;19.05;15.40;;;;;;;17.50;100.00;97851.13;4995635;28;20426;-78
2021/06/12 03:57:54;;;;;;;20.90;15.10;;;;;;;17.66;100.00;97849.16;5018337;28;20455;-78
2021/06/12 04:00:21;;;;;;;19.48;14.98;;;;;;;17.70;100.00;97856.34;4983103;28;20046;-79
2021/06/12 04:02:49;;;;;;;21.80;14.93;;;;;;;17.81;100.00;97856.56;5014346;28;20134;-78
2021/06/12 04:05:17;;;;;;;18.02;14.45;;;;;;;17.81;100.00;97845.59;5015979;28;20054;-78
2021/06/12 04:07:44;;;;;;;22.15;15.75;;;;;;;17.90;100.00;97851.69;4995577;28;20469;-78
2021/06/12 04:10:12;;;;;;;18.50;13.82;;;;;;;17.95;100.00;97845.94;5010752;28;20076;-78
2021/06/12 04:12:39;;;;;;;20.27;14.18;;;;;;;18.01;100.00;97839.03;4993269;28;20050;-78
2021/06/12 04:15:06;;;;;;;21.67;13.52;;;;;;;18.06;100.00;97838.75;4977809;28;20478;-78
2021/06/12 04:17:33;;;;;;;22.23;13.93;;;;;;;18.11;100.00;97837.66;4995730;28;20148;-78
2021/06/12 04:20:00;;;;;;;18.98;14.02;;;;;;;18.15;100.00;97844.81;5013125;28;20124;-78
2021/06/12 04:22:27;;;;;;;20.02;14.77;;;;;;;18.14;100.00;97840.50;5014180;28;20058;-78
2021/06/12 04:24:56;;;;;;;17.33;14.85;;;;;;;18.16;100.00;97835.44;5014378;28;20113;-78
2021/06/12 04:27:22;;;;;;;20.02;15.10;;;;;;;18.12;100.00;97845.50;5014131;28;20362;-78
2021/06/12 04:29:49;;;;;;;23.10;14.93;;;;;;;18.19;100.00;97850.38;5012414;28;20057;-78
2021/06/12 04:32:18;;;;;;;22.73;14.50;;;;;;;18.23;100.00;97852.03;5011457;28;20045;-78
2021/06/12 04:34:44;;;;;;;22.77;13.93;;;;;;;18.35;100.00;97845.63;5014964;28;20053;-78
2021/06/12 04:37:11;;;;;;;15.98;13.88;;;;;;;18.39;100.00;97841.00;5014126;28;20057;-78
2021/06/12 04:39:38;;;;;;;17.95;13.90;;;;;;;18.48;100.00;97844.34;4997113;28;20053;-78
2021/06/12 04:42:05;;;;;;;17.13;13.82;;;;;;;18.52;100.00;97854.25;5013483;28;20080;-78
2021/06/12 04:44:35;;;;;;;14.27;12.68;;;;;;;18.61;100.00;97857.53;5011481;28;20057;-77
2021/06/12 04:47:02;;;;;;;20.23;14.18;;;;;;;18.68;100.00;97849.44;5029357;28;20061;-78
2021/06/12 04:49:29;;;;;;;20.05;14.15;;;;;;;18.72;100.00;97849.53;5030236;28;20064;-78
2021/06/12 04:51:56;;;;;;;22.05;13.35;;;;;;;18.80;100.00;97848.50;5012575;28;20057;-77
2021/06/12 04:54:22;;;;;;;16.80;13.32;;;;;;;18.85;100.00;97850.16;5011467;28;20049;-79
2021/06/12 04:56:49;;;;;;;18.70;12.77;;;;;;;18.91;100.00;97841.28;5027517;28;20053;-77
2021/06/12 04:59:16;;;;;;;23.95;13.65;;;;;;;18.92;100.00;97845.59;5029863;28;20060;-77
2021/06/12 05:01:44;;;;;;;16.75;13.07;;;;;;;18.95;100.00;97855.84;5030552;28;20420;-78
2021/06/12 05:04:11;;;;;;;20.65;12.93;;;;;;;19.02;100.00;97849.72;5030700;28;20056;-77
2021/06/12 05:06:37;;;;;;;17.27;13.38;;;;;;;19.06;100.00;97856.03;5030078;28;20060;-78
2021/06/12 05:09:04;;;;;;;15.23;12.68;;;;;;;19.20;100.00;97851.59;5015414;28;20286;-78
2021/06/12 05:11:32;;;;;;;14.73;12.38;;;;;;;19.24;100.00;97851.66;5000089;28;20049;-77
2021/06/12 05:13:58;;;;;;;19.30;12.70;;;;;;;19.31;100.00;97857.28;5032492;28;20045;-77
2021/06/12 05:16:27;;;;;;;13.32;11.52;;;;;;;19.43;100.00;97848.09;5034178;28;20115;-78
2021/06/12 05:18:54;;;;;;;16.65;11.63;;;;;;;19.57;100.00;97843.63;5033507;28;20061;-78
2021/06/12 05:21:21;;;;;;;14.45;11.65;;;;;;;19.66;100.00;97848.88;5034483;28;20115;-78
2021/06/12 05:23:50;;;;;;;14.55;12.02;;;;;;;19.62;100.00;97842.50;5034298;28;20171;-79
2021/06/12 05:26:17;;;;;;;13.55;11.55;;;;;;;19.59;100.00;97846.00;5018587;28;20053;-78
2021/06/12 05:28:43;;;;;;;20.33;11.70;;;;;;;19.51;100.00;97845.09;5036082;28;20053;-79
2021/06/12 05:31:10;;;;;;;18.08;11.82;;;;;;;19.60;100.00;97840.13;5017248;28;20061;-78
2021/06/12 05:33:38;;;;;;;16.15;12.13;;;;;;;19.60;100.00;97842.88;5034318;28;20419;-79
2021/06/12 05:36:07;;;;;;;16.40;11.60;;;;;;;19.66;100.00;97846.13;5020255;28;20056;-78
2021/06/12 05:38:34;;;;;;;13.50;11.38;;;;;;;19.64;100.00;97846.47;5037767;28;20137;-78
2021/06/12 05:41:01;;;;;;;15.20;11.70;;;;;;;19.58;100.00;97839.72;5036604;28;20045;-79
2021/06/12 05:43:28;;;;;;;15.75;11.73;;;;;;;19.72;100.00;97850.91;5017911;28;20065;-78
2021/06/12 05:45:55;;;;;;;16.08;11.95;;;;;;;19.81;100.00;97847.91;5016893;28;20053;-78
2021/06/12 05:48:24;;;;;;;13.43;11.63;;;;;;;20.02;100.00;97852.94;5034046;28;20108;-78
2021/06/12 05:50:52;;;;;;;20.00;11.68;;;;;;;20.19;100.00;97846.88;5034500;28;20410;-77
2021/06/12 05:53:22;;;;;;;12.95;10.88;;;;;;;20.43;100.00;97839.00;5033923;28;20079;-78
2021/06/12 05:55:49;;;;;;;13.38;10.18;;;;;;;20.61;100.00;97841.97;4999891;28;20052;-78
2021/06/12 05:58:15;;;;;;;12.95;10.00;;;;;;;20.81;100.00;97829.59;4998583;28;20053;-78
2021/06/12 06:00:42;;;;;;;11.90;10.00;;;;;;;20.86;100.00;97829.25;5015081;28;20049;-78
2021/06/12 06:03:09;;;;;;;14.23;9.68;;;;;;;21.14;100.00;97842.53;5033619;28;20083;-78
2021/06/12 06:05:35;;;;;;;13.88;8.18;;;;;;;21.24;100.00;97832.81;5032691;28;20050;-77
2021/06/12 06:08:02;;;;;;;11.98;7.85;;;;;;;21.00;100.00;97848.69;5032797;28;20473;-78
2021/06/12 06:10:29;;;;;;;11.70;8.40;;;;;;;21.08;100.00;97853.13;5015935;28;20065;-79
2021/06/12 06:13:03;;;;;;;11.48;7.82;;;;;;;20.84;100.00;97839.06;5031957;28;20053;-78
2021/06/12 06:15:30;;;;;;;9.88;7.57;;;;;;;20.67;100.00;97848.72;5032023;28;20109;-77
2021/06/12 06:17:56;;;;;;;9.77;7.40;;;;;;;20.79;100.00;97833.91;5016202;28;20519;-77
2021/06/12 06:20:25;;;;;;;11.90;7.47;;;;;;;20.70;100.00;97844.44;5035694;28;20156;-78
2021/06/12 06:22:52;;;;;;;9.15;7.18;;;;;;;20.65;100.00;97842.78;5020885;28;20045;-78
2021/06/12 06:25:23;;;;;;;12.65;7.60;;;;;;;20.63;100.00;97838.81;5032547;28;20064;-79
2021/06/12 06:27:52;;;;;;;11.15;7.45;;;;;;;20.72;100.00;97842.88;5032689;28;20064;-79
2021/06/12 06:30:19;;;;;;;10.10;7.30;;;;;;;20.94;100.00;97835.63;5014915;28;20061;-77
2021/06/12 06:32:46;;;;;;;10.02;7.25;;;;;;;20.81;100.00;97835.09;5013590;28;20452;-78
2021/06/12 06:35:16;;;;;;;14.75;7.53;;;;;;;21.02;100.00;97840.84;5013881;28;20053;-76
2021/06/12 06:37:46;;;;;;;9.93;7.43;;;;;;;20.96;100.00;97836.84;5030321;28;20061;-77
2021/06/12 06:40:13;;;;;;;9.73;7.43;;;;;;;21.09;100.00;97835.44;5013982;28;20118;-77
2021/06/12 06:42:41;;;;;;;9.95;7.40;;;;;;;20.97;100.00;97834.88;5031787;28;20417;-78
2021/06/12 06:45:10;;;;;;;11.63;8.27;;;;;;;20.80;100.00;97836.25;5031770;28;20068;-78
2021/06/12 06:47:37;;;;;;;11.73;8.38;;;;;;;20.92;100.00;97837.97;5014242;28;20052;-79
2021/06/12 06:50:06;;;;;;;11.75;8.25;;;;;;;21.20;100.00;97832.78;5031230;28;20513;-76
2021/06/12 06:52:32;;;;;;;12.05;8.07;;;;;;;21.44;100.00;97823.94;5014374;28;20055;-76
2021/06/12 06:54:59;;;;;;;14.52;8.95;;;;;;;21.53;100.00;97829.91;5031548;28;20053;-78
2021/06/12 06:57:27;;;;;;;12.63;9.20;;;;;;;21.53;100.00;97824.41;5013515;28;20148;-78
2021/06/12 06:59:53;;;;;;;10.77;8.55;;;;;;;21.69;100.00;97824.13;5029951;28;20054;-76
2021/06/12 07:02:20;;;;;;;15.50;9.43;;;;;;;21.67;100.00;97821.75;5014050;28;20045;-78
2021/06/12 07:04:46;;;;;;;14.35;9.23;;;;;;;21.89;100.00;97830.19;5030641;28;20053;-78
2021/06/12 07:07:13;;;;;;;12.68;9.70;;;;;;;21.80;100.00;97808.47;5030909;28;20493;-77
2021/06/12 07:09:39;;;;;;;18.67;10.18;;;;;;;21.78;100.00;97827.34;5022266;28;20061;-77
2021/06/12 07:12:08;;;;;;;11.05;8.73;;;;;;;22.00;100.00;97807.03;5015859;28;20042;-77
2021/06/12 07:14:36;;;;;;;13.55;8.93;;;;;;;22.08;100.00;97816.94;5030743;28;20050;-77
2021/06/12 07:17:02;;;;;;;18.88;9.85;;;;;;;21.97;100.00;97829.84;5030559;28;20053;-77
2021/06/12 07:19:29;;;;;;;13.55;8.93;;;;;;;22.17;100.00;97831.16;5030510;28;20083;-77
2021/06/12 07:21:56;;;;;;;16.70;10.45;;;;;;;22.05;100.00;97816.91;5031016;28;20048;-77
2021/06/12 07:24:22;;;;;;;14.43;10.27;;;;;;;22.06;100.00;97824.81;5030600;28;20053;-77
2021/06/12 07:26:49;;;;;;;18.42;10.20;;;;;;;22.36;100.00;97824.56;5012987;28;20463;-78
2021/06/12 07:29:16;;;;;;;17.42;9.88;;;;;;;22.50;100.00;97816.34;5012793;28;20049;-77
2021/06/12 07:31:43;;;;;;;15.52;10.77;;;;;;;22.41;100.00;97815.09;5016475;28;20523;-78
2021/06/12 07:34:10;;;;;;;19.08;11.50;;;;;;;22.19;100.00;97811.47;5013222;28;20459;-78
2021/06/12 07:36:38;;;;;;;16.65;11.68;;;;;;;21.95;100.00;97804.66;5013785;28;20057;-78
2021/06/12 07:39:06;;;;;;;18.45;11.55;;;;;;;22.29;100.00;97803.25;5030873;28;20053;-77
2021/06/12 07:41:34;;;;;;;19.75;11.40;;;;;;;22.53;100.00;97809.25;4997206;28;20053;-78
2021/06/12 07:44:01;;;;;;;16.27;11.32;;;;;;;22.66;100.00;97805.00;5012492;28;20041;-79
2021/06/12 07:46:28;;;;;;;17.77;11.43;;;;;;;22.87;100.00;97802.28;5030557;28;20054;-78
2021/06/12 07:48:55;;;;;;;16.38;11.95;;;;;;;22.77;100.00;97809.34;5030870;28;20095;-77
2021/06/12 07:51:22;;;;;;;17.00;12.32;;;;;;;23.18;100.00;97797.97;5012643;28;20165;-78
2021/06/12 07:53:49;;;;;;;17.20;10.40;;;;;;;23.48;100.00;97790.94;5030255;28;20053;-77
2021/06/12 07:56:15;;;;;;;18.40;10.75;;;;;;;23.44;100.00;97805.91;4996499;28;20554;-77
2021/06/12 07:58:43;;;;;;;13.93;10.07;;;;;;;23.59;100.00;97801.19;5029499;28;20054;-77
2021/06/12 08:01:12;;;;;;;17.02;10.63;;;;;;;23.62;100.00;97801.16;5029827;28;20076;-77
2021/06/12 08:03:38;;;;;;;16.77;10.40;;;;;;;23.39;100.00;97801.56;4996123;28;20050;-77
2021/06/12 08:06:05;;;;;;;17.95;11.13;;;;;;;23.00;100.00;97797.97;5012662;28;20456;-79
2021/06/12 08:08:31;;;;;;;24.48;11.55;;;;;;;22.91;100.00;97790.06;5011966;28;20523;-77
2021/06/12 08:10:58;;;;;;;18.23;10.85;;;;;;;22.95;100.00;97792.81;5011647;28;20058;-78
2021/06/12 08:13:25;;;;;;;20.65;12.18;;;;;;;22.95;100.00;97787.31;5029586;28;20053;-78
2021/06/12 08:15:51;;;;;;;17.73;10.98;;;;;;;23.10;100.00;97780.59;5012450;28;20050;-78
2021/06/12 08:18:18;;;;;;;22.02;12.05;;;;;;;23.34;100.00;97782.59;5029864;28;20547;-78
2021/06/12 08:20:47;;;;;;;18.48;11.20;;;;;;;23.61;100.00;97776.69;5031433;28;20053;-77
2021/06/12 08:23:14;;;;;;;20.63;11.75;;;;;;;23.43;100.00;97780.25;5028298;28;20520;-77
2021/06/12 08:25:41;;;;;;;20.73;11.32;;;;;;;23.19;100.00;97786.53;5031038;28;20057;-77
2021/06/12 08:28:09;;;;;;;16.75;10.98;;;;;;;23.17;100.00;97793.66;5014039;28;20052;-80
2021/06/12 08:30:36;;;;;;;19.60;12.40;;;;;;;22.94;100.00;97794.03;5015630;28;20050;-79
2021/06/12 08:33:04;;;;;;;16.08;11.50;;;;;;;23.40;100.00;97788.56;5013592;28;20088;-79
2021/06/12 08:35:31;;;;;;;20.58;12.02;;;;;;;23.72;100.00;97785.78;4997559;28;20061;-77
2021/06/12 08:37:57;;;;;;;30.50;11.43;;;;;;;23.84;100.00;97783.38;5032080;28;20053;-79
2021/06/12 08:40:28;;;;;;;17.30;10.07;;;;;;;23.71;100.00;97779.44;5014448;28;20065;-80
2021/06/12 08:42:58;;;;;;;14.50;9.55;;;;;;;23.89;100.00;97793.22;5031646;28;20653;-79
2021/06/12 08:45:28;;;;;;;15.50;9.38;;;;;;;23.86;100.00;97788.50;5031114;28;20076;-78
2021/06/12 08:47:56;;;;;;;23.02;10.18;;;;;;;23.74;100.00;97788.91;5031177;28;20117;-78
2021/06/12 08:50:24;;;;;;;25.98;10.70;;;;;;;23.71;100.00;97798.81;5032831;28;20532;-78
2021/06/12 08:52:54;;;;;;;36.65;9.70;;;;;;;23.55;100.00;97790.13;5032943;28;20069;-78
2021/06/12 08:55:21;;;;;;;22.48;9.95;;;;;;;23.06;100.00;97785.34;5032947;28;20415;-79
2021/06/12 08:57:48;;;;;;;15.13;9.02;;;;;;;23.37;100.00;97783.81;5030800;28;20104;-78
2021/06/12 09:00:17;;;;;;;13.65;9.13;;;;;;;23.17;100.00;97788.13;5031835;28;20078;-78
2021/06/12 09:03:09;;;;;;;13.60;8.05;;;;;;;23.24;100.00;97785.34;5014465;28;20049;-78
2021/06/12 09:05:54;;;;;;;14.05;8.40;;;;;;;22.97;100.00;97782.16;5031911;28;20429;-79
2021/06/12 09:08:23;;;;;;;14.27;7.90;;;;;;;22.81;100.00;97781.78;5031525;28;20076;-77
2021/06/12 09:10:58;;;;;;;16.30;9.50;;;;;;;22.90;100.00;97774.69;5013544;28;20050;-78
2021/06/12 09:13:42;;;;;;;14.77;9.40;;;;;;;23.55;100.00;97774.34;5029879;28;20120;-78
2021/06/12 09:16:24;;;;;;;16.48;9.05;;;;;;;23.98;100.00;97775.03;5013327;28;20057;-78
2021/06/12 09:19:17;;;;;;;16.23;8.73;;;;;;;24.05;100.00;97786.06;5015686;28;20227;-79
2021/06/12 09:21:49;;;;;;;15.35;9.15;;;;;;;23.83;100.00;97784.56;5013933;28;20061;-80
2021/06/12 09:24:25;;;;;;;22.13;9.40;;;;;;;23.83;100.00;97770.72;5031638;28;20065;-80
2021/06/12 09:26:56;;;;;;;14.88;8.60;;;;;;;24.24;100.00;97775.75;5015164;28;20509;-78
2021/06/12 09:29:34;;;;;;;23.13;9.05;;;;;;;24.21;100.00;97776.59;5033103;28;20053;-78
2021/06/12 09:32:01;;;;;;;16.15;8.88;;;;;;;23.34;100.00;97787.34;5033298;28;20049;-78
2021/06/12 09:34:32;;;;;;;13.93;8.43;;;;;;;23.03;100.00;97783.38;4998535;28;20068;-79
2021/06/12 09:37:08;;;;;;;11.73;8.60;;;;;;;23.04;100.00;97773.91;5013969;28;20136;-77
2021/06/12 09:39:37;;;;;;;14.18;7.78;;;;;;;22.64;100.00;97775.00;5032192;28;20056;-79
2021/06/12 09:42:05;;;;;;;14.80;8.02;;;;;;;22.68;100.00;97778.59;5029821;28;20408;-78
2021/06/12 09:44:41;;;;;;;11.48;6.68;;;;;;;22.97;100.00;97773.88;5029058;28;20513;-77
2021/06/12 09:47:11;;;;;;;10.70;6.18;;;;;;;23.86;100.00;97785.72;5012546;28;20061;-77
2021/06/12 09:49:40;;;;;;;8.13;6.03;;;;;;;24.21;100.00;97782.88;5012620;28;20103;-78
2021/06/12 09:52:16;;;;;;;9.00;6.45;;;;;;;23.93;100.00;97777.41;5030995;28;20111;-79
2021/06/12 09:54:45;;;;;;;10.80;6.18;;;;;;;23.96;100.00;97782.16;5032118;28;20148;-80
2021/06/12 09:57:17;;;;;;;10.00;5.78;;;;;;;25.01;100.00;97772.59;5032758;28;20049;-77
2021/06/12 09:59:46;;;;;;;13.50;7.60;;;;;;;25.39;100.00;97760.44;5019952;28;20060;-78
2021/06/12 10:02:34;;;;;;;15.80;7.60;;;;;;;25.07;100.00;97768.22;5018199;28;20076;-79
2021/06/12 10:05:04;;;;;;;19.60;7.25;;;;;;;25.62;100.00;97768.19;5020143;28;20058;-78
2021/06/12 10:07:31;;;;;;;12.40;7.35;;;;;;;24.66;100.00;97772.81;5018039;28;20072;-78
2021/06/12 10:10:02;;;;;;;14.27;7.18;;;;;;;24.72;100.00;97774.72;5034947;28;20077;-79
2021/06/12 10:12:29;;;;;;;11.43;6.18;;;;;;;25.03;100.00;97761.94;5016083;28;20115;-78
2021/06/12 10:14:57;;;;;;;10.27;6.43;;;;;;;26.16;100.00;97782.31;5032279;28;20054;-79
2021/06/12 10:17:26;;;;;;;15.88;8.27;;;;;;;26.70;100.00;97761.00;5033182;28;20327;-78
2021/06/12 10:19:58;;;;;;;11.18;7.68;;;;;;;27.13;100.00;97765.53;5035314;28;20076;-79
2021/06/12 10:22:26;;;;;;;12.63;7.57;;;;;;;26.39;100.00;97751.91;5034764;28;20046;-80
2021/06/12 10:24:53;;;;;;;12.45;6.97;;;;;;;25.87;100.00;97754.84;5040491;28;20083;-78
2021/06/12 10:27:20;;;;;;;12.77;8.43;;;;;;;24.97;100.00;97768.28;5042872;28;20060;-78
2021/06/12 10:29:48;;;;;;;12.20;7.15;;;;;;;26.00;100.00;97752.34;5024958;28;20049;-78
2021/06/12 10:32:17;;;;;;;15.10;8.60;;;;;;;26.68;100.00;97757.88;5029796;28;20049;-79
2021/06/12 10:34:45;;;;;;;13.85;8.40;;;;;;;26.31;100.00;97750.41;5033737;28;20057;-78
2021/06/12 10:37:12;;;;;;;16.40;9.00;;;;;;;26.33;100.00;97756.31;5010557;28;20121;-77
2021/06/12 10:39:40;;;;;;;14.07;8.27;;;;;;;25.64;100.00;97740.84;5033084;28;20053;-77
2021/06/12 10:42:23;;;;;;;12.52;8.50;;;;;;;25.53;100.00;97745.69;5032459;28;20111;-80
2021/06/12 10:44:53;;;;;;;14.43;8.57;;;;;;;25.32;100.00;97754.16;5015046;28;20049;-77
2021/06/12 10:47:49;;;;;;;15.32;9.40;;;;;;;24.97;100.00;97741.38;5033324;28;20568;-78
2021/06/12 10:50:27;;;;;;;16.23;9.32;;;;;;;24.84;100.00;97762.44;5016204;28;20392;-79
2021/06/12 10:53:14;;;;;;;18.23;9.60;;;;;;;25.24;100.00;97734.03;5015003;28;20497;-79
2021/06/12 10:55:52;;;;;;;13.35;9.40;;;;;;;26.04;100.00;97735.66;5033192;28;20500;-78
2021/06/12 10:58:31;;;;;;;15.80;9.80;;;;;;;26.02;100.00;97742.41;5032487;28;20073;-78
2021/06/12 11:01:12;;;;;;;17.70;9.90;;;;;;;25.34;100.00;97724.06;5015723;28;20057;-78
2021/06/12 11:03:54;;;;;;;17.42;10.98;;;;;;;24.62;100.00;97734.06;5014988;28;20060;-78
2021/06/12 11:06:42;;;;;;;17.48;10.52;;;;;;;25.13;100.00;97729.78;5014942;28;20057;-78
2021/06/12 11:09:12;;;;;;;21.17;11.18;;;;;;;25.92;100.00;97739.75;5032354;28;20201;-79
2021/06/12 11:11:52;;;;;;;19.02;11.38;;;;;;;26.43;100.00;97724.84;5032917;28;20517;-79
2021/06/12 11:14:27;;;;;;;17.02;11.27;;;;;;;26.61;100.00;97731.75;5032750;28;20053;-78
2021/06/12 11:17:06;;;;;;;16.85;11.63;;;;;;;25.70;100.00;97721.75;5032994;28;20053;-77
2021/06/12 11:19:49;;;;;;;17.25;11.05;;;;;;;26.21;100.00;97726.34;5015398;28;20061;-79
2021/06/12 11:22:52;;;;;;;20.70;11.90;;;;;;;26.99;100.00;97724.09;5000399;28;20057;-78